Time;durP1;ratioP1;P1;durP2;ratioP2;P2;SDS_P1;SDS_P2;PMS_P1;PMS_P2;Temp;Humidity;BMP_temperature;BMP_pressure;BME280_temperature;BME280_humidity;BME280_pressure;Samples;Min_cycle;Max_cycle;Signal;HPM_P1;HPM_P2
2021/12/18 00:01:24;;;;;;;;;;;5.50;94.00;;;;;;4969940;28;19934;-77
2021/12/18 00:03:52;;;;;;;;;;;5.50;94.00;;;;;;4962206;28;20311;-77
2021/12/18 00:06:21;;;;;;;;;;;5.50;94.00;;;;;;4969940;28;19949;-77
2021/12/18 00:08:49;;;;;;;;;;;5.50;94.00;;;;;;4982316;28;19933;-77
2021/12/18 00:11:16;;;;;;;;;;;5.60;94.00;;;;;;4963980;28;19941;-78
2021/12/18 00:13:44;;;;;;;;;;;5.60;94.00;;;;;;4981773;28;19937;-77
2021/12/18 00:16:11;;;;;;;;;;;5.60;94.00;;;;;;4983084;28;19933;-78
2021/12/18 00:18:39;;;;;;;;;;;5.70;94.00;;;;;;4962317;28;19933;-78
2021/12/18 00:21:09;;;;;;;;;;;5.60;94.00;;;;;;4974842;28;19933;-77
2021/12/18 00:23:36;;;;;;;;;;;5.70;94.00;;;;;;4988445;28;19941;-77
2021/12/18 00:26:04;;;;;;;;;;;5.70;94.00;;;;;;4987566;28;19941;-77
2021/12/18 00:28:31;;;;;;;;;;;5.70;94.00;;;;;;4954857;28;19926;-77
2021/12/18 00:30:59;;;;;;;;;;;5.70;94.00;;;;;;4964905;28;19930;-77
2021/12/18 00:33:26;;;;;;;;;;;5.70;94.00;;;;;;4987059;28;19933;-77
2021/12/18 00:35:54;;;;;;;;;;;5.70;94.00;;;;;;4974571;28;20471;-77
2021/12/18 00:38:28;;;;;;;;;;;5.70;93.90;;;;;;4940127;28;19926;-77
2021/12/18 00:41:13;;;;;;;;;;;5.70;93.90;;;;;;4970878;28;20322;-77
2021/12/18 00:44:03;;;;;;;;;;;5.70;93.90;;;;;;4967028;28;19941;-77
2021/12/18 00:46:31;;;;;;;;;;;5.70;93.90;;;;;;4980971;28;19949;-76
2021/12/18 00:48:59;;;;;;;;;;;5.70;93.90;;;;;;4987882;28;19930;-74
2021/12/18 00:51:26;;;;;;;;;;;5.80;93.90;;;;;;4980271;28;20311;-76
2021/12/18 00:53:53;;;;;;;;;;;5.80;93.90;;;;;;4965229;28;19934;-77
2021/12/18 00:56:22;;;;;;;;;;;5.80;93.90;;;;;;4941483;29;19927;-77
2021/12/18 00:58:50;;;;;;;;;;;5.80;93.90;;;;;;4990192;28;20393;-77
2021/12/18 01:01:20;;;;;;;;;;;5.80;93.90;;;;;;4982373;28;19941;-77
2021/12/18 01:03:52;;;;;;;;;;;5.80;93.90;;;;;;4980397;28;19926;-76
2021/12/18 01:06:22;;;;;;;;;;;5.80;93.90;;;;;;4988229;28;20387;-76
2021/12/18 01:08:52;;;;;;;;;;;5.90;94.00;;;;;;4980878;28;19930;-77
2021/12/18 01:14:12;;;;;;;;;;;5.80;93.90;;;;;;4972801;28;19933;-77
2021/12/18 01:17:02;;;;;;;;;;;5.80;93.90;;;;;;4990917;28;19933;-76
2021/12/18 01:24:53;;;;;;;;;;;5.90;93.80;;;;;;4994290;28;20367;-77
2021/12/18 01:27:20;;;;;;;;;;;5.90;93.80;;;;;;4960387;28;19933;-77
2021/12/18 01:29:48;;;;;;;;;;;5.90;93.90;;;;;;4976034;28;19941;-77
2021/12/18 01:32:15;;;;;;;;;;;5.90;93.90;;;;;;4986931;28;19927;-77
2021/12/18 01:34:44;;;;;;;;;;;5.90;93.90;;;;;;4946740;28;19926;-77
2021/12/18 01:37:13;;;;;;;;;;;5.90;93.90;;;;;;4978216;28;19926;-77
2021/12/18 01:39:44;;;;;;;;;;;5.90;93.90;;;;;;4993789;28;20299;-78
2021/12/18 01:52:54;;;;;;;;;;;5.90;93.90;;;;;;4955219;28;19926;-77
2021/12/18 01:55:25;;;;;;;;;;;5.90;93.90;;;;;;4957288;28;19934;-77
2021/12/18 01:57:52;;;;;;;;;;;5.90;93.90;;;;;;4975513;28;19933;-77
2021/12/18 02:00:24;;;;;;;;;;;6.00;93.90;;;;;;4975446;28;19933;-77
2021/12/18 02:02:52;;;;;;;;;;;6.00;93.90;;;;;;4974792;28;19941;-76
2021/12/18 02:05:20;;;;;;;;;;;5.90;93.90;;;;;;4956675;28;19926;-77
2021/12/18 02:07:48;;;;;;;;;;;6.00;93.90;;;;;;4959517;28;20339;-77
2021/12/18 02:10:21;;;;;;;;;;;6.00;93.90;;;;;;4974886;28;19926;-77
2021/12/18 02:21:01;;;;;;;;;;;6.00;93.80;;;;;;4974316;28;20407;-77
2021/12/18 02:23:28;;;;;;;;;;;6.00;93.80;;;;;;4938015;28;20308;-77
2021/12/18 02:25:56;;;;;;;;;;;5.90;93.80;;;;;;4989641;28;19930;-76
2021/12/18 02:28:25;;;;;;;;;;;6.00;93.80;;;;;;4973332;28;19926;-77
2021/12/18 02:30:54;;;;;;;;;;;6.00;93.80;;;;;;4974506;28;19937;-77
2021/12/18 02:33:22;;;;;;;;;;;6.00;93.90;;;;;;4972571;28;19930;-77
2021/12/18 02:35:52;;;;;;;;;;;6.00;93.90;;;;;;4972409;28;19933;-76
2021/12/18 02:39:20;;;;;;;;;;;6.00;93.90;;;;;;4973968;28;19950;-77
2021/12/18 02:44:04;;;;;;;;;;;6.00;93.90;;;;;;4963577;28;19929;-77
2021/12/18 02:46:31;;;;;;;;;;;6.00;93.90;;;;;;4965192;28;20277;-77
2021/12/18 02:49:04;;;;;;;;;;;6.00;93.90;;;;;;4964892;28;19930;-77
2021/12/18 02:51:32;;;;;;;;;;;6.00;93.90;;;;;;4976089;28;19926;-77
2021/12/18 02:53:59;;;;;;;;;;;6.00;93.90;;;;;;4948212;28;19926;-77
2021/12/18 02:56:27;;;;;;;;;;;6.00;93.90;;;;;;4979885;28;20380;-77
2021/12/18 02:59:03;;;;;;;;;;;6.00;93.90;;;;;;4977966;28;19926;-77
2021/12/18 03:01:31;;;;;;;;;;;6.00;93.90;;;;;;4945900;28;20055;-78
2021/12/18 03:04:00;;;;;;;;;;;6.00;93.90;;;;;;4980518;28;19925;-77
2021/12/18 03:06:34;;;;;;;;;;;6.00;93.90;;;;;;5002171;28;20303;-77
2021/12/18 03:22:56;;;;;;;;;;;6.00;93.90;;;;;;4958133;28;19933;-77
2021/12/18 03:25:27;;;;;;;;;;;6.00;93.90;;;;;;4968586;28;19998;-77
2021/12/18 03:27:55;;;;;;;;;;;6.00;93.90;;;;;;4978950;28;20307;-77
2021/12/18 03:30:22;;;;;;;;;;;6.00;93.90;;;;;;4976184;28;19926;-76
2021/12/18 03:32:50;;;;;;;;;;;6.00;93.90;;;;;;4977083;28;19933;-76
2021/12/18 03:35:18;;;;;;;;;;;6.00;93.90;;;;;;4976340;28;19930;-76
2021/12/18 03:37:45;;;;;;;;;;;6.00;93.90;;;;;;4982987;28;20406;-76
2021/12/18 03:40:14;;;;;;;;;;;5.90;93.90;;;;;;4981903;28;20292;-77
2021/12/18 03:42:42;;;;;;;;;;;5.90;93.90;;;;;;4970950;28;19937;-76
2021/12/18 03:45:10;;;;;;;;;;;5.90;93.90;;;;;;4969118;28;19942;-76
2021/12/18 03:47:38;;;;;;;;;;;5.90;93.80;;;;;;4989018;28;19929;-76
2021/12/18 03:50:06;;;;;;;;;;;5.90;93.80;;;;;;4956807;28;19926;-78
2021/12/18 03:52:33;;;;;;;;;;;5.90;93.80;;;;;;4975563;28;19930;-77
2021/12/18 03:55:01;;;;;;;;;;;5.90;93.90;;;;;;4976658;28;19930;-77
2021/12/18 03:57:28;;;;;;;;;;;5.80;93.80;;;;;;4987688;28;20009;-77
2021/12/18 03:59:56;;;;;;;;;;;5.90;93.90;;;;;;4981270;28;19930;-76
2021/12/18 04:02:23;;;;;;;;;;;5.90;93.90;;;;;;4971697;28;20296;-77
2021/12/18 04:04:51;;;;;;;;;;;5.90;93.90;;;;;;4976626;28;19926;-77
2021/12/18 04:07:18;;;;;;;;;;;5.90;93.90;;;;;;4962282;28;19926;-77
2021/12/18 04:09:48;;;;;;;;;;;5.90;93.80;;;;;;4975308;28;19930;-77
2021/12/18 04:12:16;;;;;;;;;;;5.80;93.80;;;;;;4979563;28;19930;-77
2021/12/18 04:14:44;;;;;;;;;;;5.80;93.80;;;;;;4973658;28;19926;-77
2021/12/18 04:17:11;;;;;;;;;;;5.90;93.80;;;;;;4982163;28;19930;-77
2021/12/18 04:19:39;;;;;;;;;;;5.80;93.80;;;;;;4985843;28;19926;-77
2021/12/18 04:22:06;;;;;;;;;;;5.80;93.80;;;;;;4978601;28;20391;-77
2021/12/18 04:24:34;;;;;;;;;;;5.80;93.80;;;;;;4981380;28;19933;-77
2021/12/18 04:27:01;;;;;;;;;;;5.80;93.80;;;;;;4987813;28;19934;-77
2021/12/18 04:29:29;;;;;;;;;;;5.80;93.80;;;;;;4977261;28;19948;-77
2021/12/18 04:31:56;;;;;;;;;;;5.80;93.80;;;;;;4987005;28;19933;-77
2021/12/18 04:34:23;;;;;;;;;;;5.80;93.80;;;;;;4987606;28;20442;-77
2021/12/18 04:36:51;;;;;;;;;;;5.80;93.80;;;;;;4963671;28;20311;-77
2021/12/18 04:39:18;;;;;;;;;;;5.70;93.70;;;;;;4958346;28;19926;-77
2021/12/18 04:41:52;;;;;;;;;;;5.80;93.80;;;;;;4965561;28;19927;-77
2021/12/18 04:44:19;;;;;;;;;;;5.80;93.70;;;;;;4966960;28;19933;-77
2021/12/18 04:46:47;;;;;;;;;;;5.70;93.70;;;;;;4976530;28;19930;-77
2021/12/18 04:49:14;;;;;;;;;;;5.80;93.70;;;;;;4970493;28;20388;-77
2021/12/18 04:51:41;;;;;;;;;;;5.70;93.70;;;;;;4954478;28;19930;-78
2021/12/18 04:54:09;;;;;;;;;;;5.70;93.70;;;;;;4986171;28;19933;-77
2021/12/18 04:56:36;;;;;;;;;;;5.70;93.70;;;;;;4968834;28;19945;-77
2021/12/18 04:59:05;;;;;;;;;;;5.70;93.70;;;;;;4956911;28;20288;-77
2021/12/18 05:01:38;;;;;;;;;;;5.70;93.70;;;;;;4971930;28;19937;-77
2021/12/18 05:04:11;;;;;;;;;;;5.70;93.70;;;;;;4939359;28;20284;-77
2021/12/18 05:06:42;;;;;;;;;;;5.70;93.70;;;;;;4963997;28;19930;-77
2021/12/18 05:09:11;;;;;;;;;;;5.70;93.80;;;;;;4964432;28;19954;-77
2021/12/18 05:11:39;;;;;;;;;;;5.80;93.80;;;;;;4954192;28;19937;-77
2021/12/18 05:14:06;;;;;;;;;;;5.70;93.70;;;;;;4978938;28;19936;-77
2021/12/18 05:16:34;;;;;;;;;;;5.70;93.70;;;;;;4979419;28;19926;-77
2021/12/18 05:19:02;;;;;;;;;;;5.70;93.70;;;;;;4980194;28;19926;-77
2021/12/18 05:21:30;;;;;;;;;;;5.70;93.70;;;;;;4982727;28;19956;-77
2021/12/18 05:23:57;;;;;;;;;;;5.70;93.70;;;;;;4966215;28;19929;-77
2021/12/18 05:26:25;;;;;;;;;;;5.70;93.70;;;;;;4993603;28;19934;-76
2021/12/18 05:28:53;;;;;;;;;;;5.70;93.60;;;;;;4970537;28;19926;-77
2021/12/18 05:31:20;;;;;;;;;;;5.70;93.60;;;;;;4960688;28;20331;-76
2021/12/18 05:33:52;;;;;;;;;;;5.70;93.60;;;;;;4980736;28;19931;-77
2021/12/18 05:39:11;;;;;;;;;;;5.70;93.60;;;;;;4914745;29;19950;-77
2021/12/18 05:41:38;;;;;;;;;;;5.70;93.50;;;;;;4914691;29;20001;-77
2021/12/18 05:44:06;;;;;;;;;;;5.70;93.50;;;;;;4915331;29;19933;-76
2021/12/18 05:46:34;;;;;;;;;;;5.70;93.50;;;;;;4914592;29;19926;-77
2021/12/18 05:49:02;;;;;;;;;;;5.70;93.40;;;;;;4930985;29;20479;-76
2021/12/18 05:51:30;;;;;;;;;;;5.70;93.50;;;;;;4929284;29;20571;-77
2021/12/18 05:53:58;;;;;;;;;;;5.70;93.50;;;;;;4930804;29;20349;-76
2021/12/18 05:56:26;;;;;;;;;;;5.70;93.50;;;;;;4929753;29;20389;-76
2021/12/18 05:58:56;;;;;;;;;;;5.70;93.40;;;;;;4930977;29;19927;-76
2021/12/18 06:01:24;;;;;;;;;;;5.70;93.40;;;;;;4930676;29;19926;-77
2021/12/18 06:03:52;;;;;;;;;;;5.70;93.40;;;;;;4934111;29;19937;-76
2021/12/18 06:06:21;;;;;;;;;;;5.70;93.40;;;;;;4933011;29;19934;-76
2021/12/18 06:08:50;;;;;;;;;;;5.70;93.40;;;;;;4934255;29;19926;-76
2021/12/18 06:11:20;;;;;;;;;;;5.70;93.40;;;;;;4917854;29;19930;-76
2021/12/18 06:13:48;;;;;;;;;;;5.70;93.30;;;;;;4933941;29;19942;-77
2021/12/18 06:16:17;;;;;;;;;;;5.70;93.30;;;;;;4927304;29;19934;-77
2021/12/18 06:18:46;;;;;;;;;;;5.70;93.20;;;;;;4939897;28;19934;-77
2021/12/18 06:21:15;;;;;;;;;;;5.70;93.20;;;;;;4954906;28;19935;-77
2021/12/18 06:23:43;;;;;;;;;;;5.70;93.20;;;;;;4956012;28;20319;-79
2021/12/18 06:26:10;;;;;;;;;;;5.70;93.20;;;;;;4954879;29;19930;-78
2021/12/18 06:28:38;;;;;;;;;;;5.70;93.20;;;;;;4955404;29;20308;-77
2021/12/18 06:31:25;;;;;;;;;;;5.70;93.20;;;;;;4952684;28;19941;-77
2021/12/18 06:33:53;;;;;;;;;;;5.70;93.20;;;;;;4955059;29;19926;-78
2021/12/18 06:36:21;;;;;;;;;;;5.70;93.20;;;;;;4954882;29;20376;-77
2021/12/18 06:38:48;;;;;;;;;;;5.70;93.20;;;;;;4938502;29;19926;-77
2021/12/18 06:41:16;;;;;;;;;;;5.70;93.20;;;;;;4954659;29;19930;-79
2021/12/18 06:43:46;;;;;;;;;;;5.70;93.20;;;;;;4962446;28;19926;-76
2021/12/18 06:46:14;;;;;;;;;;;5.70;93.20;;;;;;4973765;28;19934;-76
2021/12/18 06:48:41;;;;;;;;;;;5.70;93.20;;;;;;4974974;28;19926;-75
2021/12/18 06:51:08;;;;;;;;;;;5.70;93.20;;;;;;4973489;28;19934;-76
2021/12/18 06:53:36;;;;;;;;;;;5.70;93.20;;;;;;4974346;28;19933;-77
2021/12/18 06:56:06;;;;;;;;;;;5.70;93.10;;;;;;4974236;28;19926;-77
2021/12/18 06:58:34;;;;;;;;;;;5.70;93.20;;;;;;4989245;28;19933;-76
2021/12/18 07:01:01;;;;;;;;;;;5.70;93.20;;;;;;4973958;28;19941;-77
2021/12/18 07:03:29;;;;;;;;;;;5.70;93.20;;;;;;4964882;28;19926;-77
2021/12/18 07:05:57;;;;;;;;;;;5.70;93.20;;;;;;4967228;28;19934;-77
2021/12/18 07:08:24;;;;;;;;;;;5.70;93.20;;;;;;4974436;28;19926;-77
2021/12/18 07:10:52;;;;;;;;;;;5.70;93.20;;;;;;4953388;29;19926;-77
2021/12/18 07:13:22;;;;;;;;;;;5.70;93.20;;;;;;4986796;28;19926;-78
2021/12/18 07:15:51;;;;;;;;;;;5.70;93.20;;;;;;4970973;28;19949;-77
2021/12/18 07:18:19;;;;;;;;;;;5.70;93.20;;;;;;4956358;28;19926;-77
2021/12/18 07:20:48;;;;;;;;;;;5.70;93.20;;;;;;4955767;28;19926;-77
2021/12/18 07:23:15;;;;;;;;;;;5.60;93.20;;;;;;4954857;28;19926;-78
2021/12/18 07:25:43;;;;;;;;;;;5.70;93.20;;;;;;4973176;28;19926;-77
2021/12/18 07:28:10;;;;;;;;;;;5.70;93.30;;;;;;4973045;28;19934;-77
2021/12/18 07:30:38;;;;;;;;;;;5.70;93.30;;;;;;4955365;28;19926;-77
2021/12/18 07:33:10;;;;;;;;;;;5.70;93.30;;;;;;4954560;28;19930;-77
2021/12/18 07:35:38;;;;;;;;;;;5.70;93.30;;;;;;4972611;28;19926;-77
2021/12/18 07:38:06;;;;;;;;;;;5.70;93.30;;;;;;4955388;28;20315;-77
2021/12/18 07:40:34;;;;;;;;;;;5.60;93.30;;;;;;4954940;28;20292;-76
2021/12/18 07:43:01;;;;;;;;;;;5.70;93.30;;;;;;4970740;28;19934;-76
2021/12/18 07:45:33;;;;;;;;;;;5.60;93.30;;;;;;4973524;28;20392;-77
2021/12/18 07:48:01;;;;;;;;;;;5.60;93.30;;;;;;4973380;28;19926;-77
2021/12/18 07:50:28;;;;;;;;;;;5.60;93.30;;;;;;4973028;28;19930;-76
2021/12/18 07:52:56;;;;;;;;;;;5.60;93.30;;;;;;4972232;28;19933;-76
2021/12/18 07:55:23;;;;;;;;;;;5.60;93.30;;;;;;4973062;28;19930;-76
2021/12/18 07:57:51;;;;;;;;;;;5.60;93.40;;;;;;4972812;28;19930;-76
2021/12/18 08:00:19;;;;;;;;;;;5.60;93.40;;;;;;4973053;28;19934;-76
2021/12/18 08:02:47;;;;;;;;;;;5.60;93.40;;;;;;4983984;28;20296;-77
2021/12/18 08:05:14;;;;;;;;;;;5.70;93.40;;;;;;4956357;28;19934;-77
2021/12/18 08:07:42;;;;;;;;;;;5.60;93.40;;;;;;4973089;28;19930;-77
2021/12/18 08:10:09;;;;;;;;;;;5.70;93.40;;;;;;4972831;28;19930;-78
2021/12/18 08:12:37;;;;;;;;;;;5.60;93.40;;;;;;4965861;28;20368;-78
2021/12/18 08:15:04;;;;;;;;;;;5.60;93.40;;;;;;4974858;28;19934;-77
2021/12/18 08:17:32;;;;;;;;;;;5.60;93.40;;;;;;4977162;28;19937;-78
2021/12/18 08:20:00;;;;;;;;;;;5.60;93.50;;;;;;4974761;28;19926;-76
2021/12/18 08:22:28;;;;;;;;;;;5.60;93.50;;;;;;4940510;28;19953;-79
2021/12/18 08:24:55;;;;;;;;;;;5.50;93.50;;;;;;4973607;28;19934;-78
2021/12/18 08:27:23;;;;;;;;;;;5.60;93.50;;;;;;4972475;28;19930;-79
2021/12/18 08:29:50;;;;;;;;;;;5.60;93.50;;;;;;4972347;28;19933;-77
2021/12/18 08:32:17;;;;;;;;;;;5.60;93.50;;;;;;4971349;28;19933;-77
2021/12/18 08:34:45;;;;;;;;;;;5.60;93.50;;;;;;4972131;28;19926;-78
2021/12/18 08:37:12;;;;;;;;;;;5.60;93.50;;;;;;4971500;28;20277;-77
2021/12/18 08:39:40;;;;;;;;;;;5.60;93.60;;;;;;4972099;28;20019;-78
2021/12/18 08:42:07;;;;;;;;;;;5.60;93.60;;;;;;4971060;28;19934;-77
2021/12/18 08:44:35;;;;;;;;;;;5.60;93.60;;;;;;4972364;28;20391;-77
2021/12/18 08:47:02;;;;;;;;;;;5.60;93.60;;;;;;4986129;28;19953;-78
2021/12/18 08:49:30;;;;;;;;;;;5.60;93.60;;;;;;4972306;28;19930;-77
2021/12/18 08:51:57;;;;;;;;;;;5.60;93.60;;;;;;4971653;28;20308;-77
2021/12/18 08:54:25;;;;;;;;;;;5.60;93.50;;;;;;4972053;28;19926;-78
2021/12/18 08:57:08;;;;;;;;;;;5.60;93.50;;;;;;4953833;28;19941;-77
2021/12/18 08:59:37;;;;;;;;;;;5.60;93.50;;;;;;4960677;28;19926;-77
2021/12/18 09:02:08;;;;;;;;;;;5.50;93.50;;;;;;4958233;28;19926;-77
2021/12/18 09:04:36;;;;;;;;;;;5.60;93.50;;;;;;4966817;28;19937;-76
2021/12/18 09:07:04;;;;;;;;;;;5.50;93.50;;;;;;4954266;28;19933;-77
2021/12/18 09:09:37;;;;;;;;;;;5.60;93.50;;;;;;4972103;28;19926;-76
2021/12/18 09:12:04;;;;;;;;;;;5.50;93.50;;;;;;4971864;28;19930;-76
2021/12/18 09:14:31;;;;;;;;;;;5.60;93.50;;;;;;4970296;28;19926;-77
2021/12/18 09:16:59;;;;;;;;;;;5.50;93.50;;;;;;4971430;28;19930;-77
2021/12/18 09:19:26;;;;;;;;;;;5.50;93.50;;;;;;4971059;28;20353;-76
2021/12/18 09:21:55;;;;;;;;;;;5.60;93.50;;;;;;4953512;28;19941;-76
2021/12/18 09:24:23;;;;;;;;;;;5.60;93.50;;;;;;4972197;28;19933;-77
2021/12/18 09:26:51;;;;;;;;;;;5.50;93.50;;;;;;4985964;28;19934;-77
2021/12/18 09:29:19;;;;;;;;;;;5.50;93.50;;;;;;4968687;28;19937;-78
2021/12/18 09:31:46;;;;;;;;;;;5.60;93.50;;;;;;4954541;28;19930;-77
2021/12/18 09:34:14;;;;;;;;;;;5.50;93.50;;;;;;4955365;28;19956;-77
2021/12/18 09:36:41;;;;;;;;;;;5.50;93.50;;;;;;4976204;28;19926;-77
2021/12/18 09:39:08;;;;;;;;;;;5.60;93.50;;;;;;4975261;28;19937;-77
2021/12/18 09:41:36;;;;;;;;;;;5.60;93.50;;;;;;4975991;28;19933;-78
2021/12/18 09:44:04;;;;;;;;;;;5.60;93.50;;;;;;4974480;28;20538;-77
2021/12/18 09:46:32;;;;;;;;;;;5.60;93.50;;;;;;4968401;28;19933;-78
2021/12/18 09:49:00;;;;;;;;;;;5.60;93.50;;;;;;4973820;28;19930;-78
2021/12/18 09:51:27;;;;;;;;;;;5.60;93.40;;;;;;4962847;28;19926;-78
2021/12/18 09:53:55;;;;;;;;;;;5.60;93.40;;;;;;4974447;28;19926;-76
2021/12/18 09:56:23;;;;;;;;;;;5.60;93.40;;;;;;4975737;28;19926;-76
2021/12/18 09:58:51;;;;;;;;;;;5.60;93.40;;;;;;4975158;28;20405;-77
2021/12/18 10:01:19;;;;;;;;;;;5.70;93.40;;;;;;4976082;28;19926;-77
2021/12/18 10:03:51;;;;;;;;;;;5.70;93.30;;;;;;4974922;28;19926;-76
2021/12/18 10:06:35;;;;;;;;;;;5.70;93.30;;;;;;4967515;28;19925;-77
2021/12/18 10:09:04;;;;;;;;;;;5.70;93.30;;;;;;4974008;28;19932;-77
2021/12/18 10:11:32;;;;;;;;;;;5.80;93.20;;;;;;4975273;28;19933;-78
2021/12/18 10:14:02;;;;;;;;;;;5.70;93.20;;;;;;4974870;28;19934;-77
2021/12/18 10:16:30;;;;;;;;;;;5.80;93.20;;;;;;4971676;28;20398;-77
2021/12/18 10:18:58;;;;;;;;;;;5.80;93.20;;;;;;4976729;28;19926;-77
2021/12/18 10:21:27;;;;;;;;;;;5.80;93.10;;;;;;4972932;28;19926;-78
2021/12/18 10:23:56;;;;;;;;;;;5.80;93.10;;;;;;4956417;28;19933;-77
2021/12/18 10:26:38;;;;;;;;;;;5.80;93.10;;;;;;4974401;28;19930;-78
2021/12/18 10:29:21;;;;;;;;;;;5.90;93.10;;;;;;4968819;28;20032;-78
2021/12/18 10:31:49;;;;;;;;;;;5.90;93.00;;;;;;4972957;28;19926;-77
2021/12/18 10:34:18;;;;;;;;;;;5.90;93.00;;;;;;4982096;28;19937;-77
2021/12/18 10:37:04;;;;;;;;;;;6.00;93.10;;;;;;4976336;28;19926;-78
2021/12/18 10:39:31;;;;;;;;;;;6.00;93.00;;;;;;4974511;28;20319;-78
2021/12/18 10:42:13;;;;;;;;;;;6.00;93.00;;;;;;4970915;28;19938;-77
2021/12/18 10:44:59;;;;;;;;;;;6.10;93.00;;;;;;4974039;28;19926;-79
2021/12/18 10:47:41;;;;;;;;;;;6.10;92.90;;;;;;4980548;28;19926;-78
2021/12/18 10:50:21;;;;;;;;;;;6.10;92.90;;;;;;4984067;28;19949;-78
2021/12/18 10:53:21;;;;;;;;;;;6.10;92.80;;;;;;4988939;28;19940;-79
2021/12/18 10:55:49;;;;;;;;;;;6.20;92.80;;;;;;4929671;28;19953;-78
2021/12/18 10:58:25;;;;;;;;;;;6.20;92.80;;;;;;4975115;28;19933;-79
2021/12/18 11:00:52;;;;;;;;;;;6.20;92.80;;;;;;4973876;28;19934;-77
2021/12/18 11:03:29;;;;;;;;;;;6.20;92.80;;;;;;4953614;28;20308;-77
2021/12/18 11:06:03;;;;;;;;;;;6.20;92.80;;;;;;4974214;28;19926;-77
2021/12/18 11:08:31;;;;;;;;;;;6.20;92.80;;;;;;4987392;28;19926;-77
2021/12/18 11:13:53;;;;;;;;;;;6.30;92.80;;;;;;4974528;28;19926;-78
2021/12/18 11:16:22;;;;;;;;;;;6.30;92.80;;;;;;4978721;28;19926;-77
2021/12/18 11:18:50;;;;;;;;;;;6.30;92.80;;;;;;4941969;28;19933;-81
2021/12/18 11:21:18;;;;;;;;;;;6.30;92.80;;;;;;4979572;28;19930;-77
2021/12/18 11:23:55;;;;;;;;;;;6.30;92.80;;;;;;4955214;28;19926;-77
2021/12/18 11:26:24;;;;;;;;;;;6.30;92.80;;;;;;4939593;28;19937;-77
2021/12/18 11:28:52;;;;;;;;;;;6.40;92.80;;;;;;4972495;28;19926;-77
2021/12/18 11:31:19;;;;;;;;;;;6.40;92.80;;;;;;4971898;28;19930;-78
2021/12/18 11:33:47;;;;;;;;;;;6.40;92.80;;;;;;4955954;28;19926;-77
2021/12/18 11:36:14;;;;;;;;;;;6.40;92.80;;;;;;4973836;28;20442;-77
2021/12/18 11:38:42;;;;;;;;;;;6.50;92.70;;;;;;4985729;28;19937;-77
2021/12/18 11:41:16;;;;;;;;;;;6.50;92.80;;;;;;4972321;28;20308;-77
2021/12/18 11:43:46;;;;;;;;;;;6.50;92.80;;;;;;4971452;28;19926;-77
2021/12/18 11:46:26;;;;;;;;;;;6.50;92.70;;;;;;4955030;28;20395;-77
2021/12/18 11:48:54;;;;;;;;;;;6.50;92.60;;;;;;4955144;28;19926;-77
2021/12/18 11:51:23;;;;;;;;;;;6.50;92.60;;;;;;4954428;28;20204;-77
2021/12/18 11:53:51;;;;;;;;;;;6.40;92.60;;;;;;4971544;28;19984;-77
2021/12/18 11:56:19;;;;;;;;;;;6.50;92.60;;;;;;4957872;28;20379;-77
2021/12/18 11:58:47;;;;;;;;;;;6.50;92.60;;;;;;4969408;28;19937;-77
2021/12/18 12:01:25;;;;;;;;;;;6.50;92.60;;;;;;4984764;28;20249;-77
2021/12/18 12:03:52;;;;;;;;;;;6.50;92.60;;;;;;4968292;28;19926;-77
2021/12/18 12:06:28;;;;;;;;;;;6.60;92.70;;;;;;4953111;28;19941;-78
2021/12/18 12:09:20;;;;;;;;;;;6.60;92.60;;;;;;4970204;28;19950;-79
2021/12/18 12:12:05;;;;;;;;;;;6.60;92.60;;;;;;4970284;28;20617;-78
2021/12/18 12:14:39;;;;;;;;;;;6.60;92.60;;;;;;4971001;28;19940;-78
2021/12/18 12:17:09;;;;;;;;;;;6.70;92.60;;;;;;4970790;28;19933;-78
2021/12/18 12:19:36;;;;;;;;;;;6.70;92.60;;;;;;4953061;28;20283;-78
2021/12/18 12:22:05;;;;;;;;;;;6.70;92.50;;;;;;4969168;28;19930;-78
2021/12/18 12:24:54;;;;;;;;;;;6.70;92.50;;;;;;4954811;28;19953;-87
2021/12/18 12:27:29;;;;;;;;;;;6.70;92.50;;;;;;4940475;28;20012;-79
2021/12/18 12:29:57;;;;;;;;;;;6.70;92.50;;;;;;4970251;28;19930;-79
2021/12/18 12:32:26;;;;;;;;;;;6.70;92.50;;;;;;4976191;28;19938;-77
2021/12/18 12:35:02;;;;;;;;;;;6.70;92.50;;;;;;4956063;28;19941;-78
2021/12/18 12:37:31;;;;;;;;;;;6.60;92.60;;;;;;4962554;28;20398;-78
2021/12/18 12:40:06;;;;;;;;;;;6.70;92.60;;;;;;4968597;28;19930;-77
2021/12/18 12:42:34;;;;;;;;;;;6.70;92.60;;;;;;4946594;28;20397;-77
2021/12/18 12:45:10;;;;;;;;;;;6.70;92.50;;;;;;4970400;28;19934;-77
2021/12/18 12:47:38;;;;;;;;;;;6.60;92.50;;;;;;4949312;28;19930;-77
2021/12/18 12:50:06;;;;;;;;;;;6.60;92.50;;;;;;4966688;28;19930;-77
2021/12/18 12:52:48;;;;;;;;;;;6.60;92.60;;;;;;4967225;28;19929;-76
2021/12/18 12:55:19;;;;;;;;;;;6.60;92.60;;;;;;4948775;28;19930;-76
2021/12/18 12:57:55;;;;;;;;;;;6.60;92.50;;;;;;4936739;28;19930;-77
2021/12/18 13:00:23;;;;;;;;;;;6.60;92.50;;;;;;4967219;28;20026;-77
2021/12/18 13:02:52;;;;;;;;;;;6.60;92.50;;;;;;4965655;28;19930;-77
2021/12/18 13:05:20;;;;;;;;;;;6.60;92.60;;;;;;4966515;28;19930;-77
2021/12/18 13:07:49;;;;;;;;;;;6.60;92.60;;;;;;4967243;28;19930;-76
2021/12/18 13:10:27;;;;;;;;;;;6.60;92.70;;;;;;4967373;28;19930;-77
2021/12/18 13:12:56;;;;;;;;;;;6.60;92.70;;;;;;4965654;28;19937;-77
2021/12/18 13:15:23;;;;;;;;;;;6.50;92.70;;;;;;4973242;28;19933;-78
2021/12/18 13:18:07;;;;;;;;;;;6.60;92.70;;;;;;4952561;28;19937;-77
2021/12/18 13:20:42;;;;;;;;;;;6.60;92.80;;;;;;4973661;28;20320;-78
2021/12/18 13:23:14;;;;;;;;;;;6.70;92.80;;;;;;4954437;28;20790;-78
2021/12/18 13:25:48;;;;;;;;;;;6.70;92.80;;;;;;4968415;28;20814;-77
2021/12/18 13:28:17;;;;;;;;;;;6.70;92.70;;;;;;4972704;28;19930;-77
2021/12/18 13:30:47;;;;;;;;;;;6.70;92.70;;;;;;4974110;28;19930;-78
2021/12/18 13:33:15;;;;;;;;;;;6.70;92.70;;;;;;4973392;28;19930;-78
2021/12/18 13:35:42;;;;;;;;;;;6.60;92.70;;;;;;4974392;28;19934;-77
2021/12/18 13:38:11;;;;;;;;;;;6.60;92.70;;;;;;4974105;28;19930;-77
2021/12/18 13:40:49;;;;;;;;;;;6.60;92.70;;;;;;4956222;28;20328;-78
2021/12/18 13:43:18;;;;;;;;;;;6.60;92.70;;;;;;4974944;28;19941;-77
2021/12/18 13:45:48;;;;;;;;;;;6.60;92.80;;;;;;4989413;28;19930;-77
2021/12/18 13:48:16;;;;;;;;;;;6.50;92.80;;;;;;4947296;28;19930;-78
2021/12/18 13:50:51;;;;;;;;;;;6.60;92.80;;;;;;4974578;28;19929;-82
2021/12/18 13:53:18;;;;;;;;;;;6.50;92.90;;;;;;4975537;28;19930;-81
2021/12/18 13:55:51;;;;;;;;;;;6.60;92.90;;;;;;4981055;28;19936;-77
2021/12/18 13:58:20;;;;;;;;;;;6.60;92.90;;;;;;4966575;28;20303;-78
2021/12/18 14:00:52;;;;;;;;;;;6.60;92.90;;;;;;4961318;28;20108;-77
2021/12/18 14:03:24;;;;;;;;;;;6.60;92.90;;;;;;4957996;28;20327;-78
2021/12/18 14:05:52;;;;;;;;;;;6.60;92.90;;;;;;4975795;28;19941;-77
2021/12/18 14:08:20;;;;;;;;;;;6.60;92.90;;;;;;4975729;28;19929;-78
2021/12/18 14:10:48;;;;;;;;;;;6.50;92.90;;;;;;4990216;28;19930;-78
2021/12/18 14:13:16;;;;;;;;;;;6.50;93.00;;;;;;4975759;28;19941;-77
2021/12/18 14:15:44;;;;;;;;;;;6.50;93.00;;;;;;4960499;28;19937;-77
2021/12/18 14:18:27;;;;;;;;;;;6.50;93.00;;;;;;4967038;28;19930;-78
2021/12/18 14:20:55;;;;;;;;;;;6.50;93.00;;;;;;4975684;28;19930;-77
2021/12/18 14:23:33;;;;;;;;;;;6.50;93.00;;;;;;4973557;28;19937;-79
2021/12/18 14:26:14;;;;;;;;;;;6.50;93.00;;;;;;4984758;28;19930;-77
2021/12/18 14:28:42;;;;;;;;;;;6.60;93.00;;;;;;4972695;28;19930;-77
2021/12/18 14:31:23;;;;;;;;;;;6.50;93.00;;;;;;4970499;28;19937;-76
2021/12/18 14:33:52;;;;;;;;;;;6.50;93.00;;;;;;4950237;28;19941;-77
2021/12/18 14:36:39;;;;;;;;;;;6.40;93.00;;;;;;4968932;28;19937;-77
2021/12/18 14:39:07;;;;;;;;;;;6.40;93.00;;;;;;4954097;28;19931;-78
2021/12/18 14:41:36;;;;;;;;;;;6.40;93.00;;;;;;4971961;28;20378;-77
2021/12/18 14:44:05;;;;;;;;;;;6.40;93.00;;;;;;4955539;28;19941;-78
2021/12/18 14:46:34;;;;;;;;;;;6.30;93.00;;;;;;4980849;28;19935;-77
2021/12/18 14:49:09;;;;;;;;;;;6.30;93.00;;;;;;4943264;28;19933;-77
2021/12/18 14:51:37;;;;;;;;;;;6.30;93.10;;;;;;4973785;28;19944;-77
2021/12/18 14:54:05;;;;;;;;;;;6.30;93.10;;;;;;4977651;28;19949;-77
2021/12/18 14:56:33;;;;;;;;;;;6.30;93.20;;;;;;4967254;28;20395;-77
2021/12/18 14:59:14;;;;;;;;;;;6.30;93.20;;;;;;4957902;28;19934;-77
2021/12/18 15:01:42;;;;;;;;;;;6.30;93.20;;;;;;4981232;28;20622;-77
2021/12/18 15:04:17;;;;;;;;;;;6.30;93.20;;;;;;4961999;28;20224;-77
2021/12/18 15:06:45;;;;;;;;;;;6.30;93.20;;;;;;4973619;28;19941;-77
2021/12/18 15:09:13;;;;;;;;;;;6.30;93.20;;;;;;4976540;28;20376;-83
2021/12/18 15:11:46;;;;;;;;;;;6.20;93.20;;;;;;4973702;28;19934;-84
2021/12/18 15:14:15;;;;;;;;;;;6.20;93.20;;;;;;4980661;28;19935;-78
2021/12/18 15:16:48;;;;;;;;;;;6.20;93.20;;;;;;4946242;28;19934;-77
2021/12/18 15:19:17;;;;;;;;;;;6.10;93.20;;;;;;4977263;28;19930;-77
2021/12/18 15:21:47;;;;;;;;;;;6.10;93.30;;;;;;4979668;28;19930;-79
2021/12/18 15:24:15;;;;;;;;;;;6.10;93.30;;;;;;4983712;28;19930;-76
2021/12/18 15:26:42;;;;;;;;;;;6.10;93.30;;;;;;4956967;28;19929;-78
2021/12/18 15:29:12;;;;;;;;;;;6.00;93.30;;;;;;4970170;28;19937;-77
2021/12/18 15:31:40;;;;;;;;;;;6.00;93.30;;;;;;4975578;28;19930;-77
2021/12/18 15:34:10;;;;;;;;;;;6.00;93.40;;;;;;4978211;28;19930;-77
2021/12/18 15:36:38;;;;;;;;;;;6.00;93.40;;;;;;4970322;28;19937;-76